^^
MeteoGriva-Weather Station Historical Data
Daily Summary for October 15, 2020 Units:  Metric    English   Both
Daily Weekly Monthly Yearly Custom
  High: Low: Average:
Temperature: 20.5 °C 13.7 °C 16.6 °C
Dew Point: 16.8 °C 10.4 °C 13.6 °C
Humidity: 99% 68.5% 83%
Wind Speed: 10.3km/h 0km/h 1.3km/h
Wind Gust: 24.1km/h - -
Wind- - South
Pressure: 1015.6 hPa 1011.5 hPa -
Precipitation: 0.0 mm    
Historical Graphs
 
 
Tabular Data for October 15, 2020
Time Temperature Dew Point Pressure Wind Wind Speed Wind Gust Humidity Rainfall Rate (Hourly) solar
00:04 14.8 °C 13.7 °C 1014.2 hPa Calm     93% 0.0 mm 0 W/m2
00:09 14.8 °C 13.8 °C 1013.9 hPa Calm     93.4% 0.0 mm 0 W/m2
00:14 14.8 °C 13.7 °C 1014.2 hPa Calm     93.2% 0.0 mm 0 W/m2
00:19 14.8 °C 13.9 °C 1014.2 hPa Calm     94.3% 0.0 mm 0 W/m2
00:24 14.7 °C 13.8 °C 1014.2 hPa Calm     95% 0.0 mm 0 W/m2
00:29 14.5 °C 13.7 °C 1014.2 hPa Calm     95% 0.0 mm 0 W/m2
00:34 14.5 °C 13.6 °C 1014.2 hPa Calm     94.1% 0.0 mm 0 W/m2
00:39 14.5 °C 13.4 °C 1014.2 hPa Calm     93.1% 0.0 mm 0 W/m2
00:44 14.5 °C 13.4 °C 1014.2 hPa Calm     92.9% 0.0 mm 0 W/m2
00:49 14.4 °C 12.8 °C 1014.2 hPa Calm     90.3% 0.0 mm 0 W/m2
00:54 14.5 °C 12.8 °C 1014.6 hPa Calm     89.4% 0.0 mm 0 W/m2
00:59 14.5 °C 12.9 °C 1014.6 hPa Calm     90% 0.0 mm 0 W/m2
01:04 14.6 °C 13.1 °C 1014.6 hPa Calm     91% 0.0 mm 0 W/m2
01:09 14.9 °C 13.4 °C 1014.6 hPa Calm     90.9% 0.0 mm 0 W/m2
01:14 14.9 °C 13.1 °C 1014.6 hPa Calm     89.1% 0.0 mm 0 W/m2
01:19 14.9 °C 13.2 °C 1014.6 hPa Calm     89.6% 0.0 mm 0 W/m2
01:24 14.7 °C 13.2 °C 1014.6 hPa Calm     90.7% 0.0 mm 0 W/m2
01:29 14.2 °C 12.8 °C 1014.6 hPa Calm     91.6% 0.0 mm 0 W/m2
01:33 14.2 °C 12.9 °C 1014.6 hPa Calm     92% 0.0 mm 0 W/m2
01:39 14.2 °C 12.9 °C 1014.6 hPa Calm     92% 0.0 mm 0 W/m2
01:44 14.2 °C 12.9 °C 1014.6 hPa Calm     92.1% 0.0 mm 0 W/m2
01:49 14.1 °C 12.5 °C 1014.6 hPa Calm     89.9% 0.0 mm 0 W/m2
01:54 14.2 °C 11.9 °C 1014.6 hPa Calm     86.3% 0.0 mm 0 W/m2
01:59 14.3 °C 11.8 °C 1014.6 hPa Calm     85.3% 0.0 mm 0 W/m2
02:04 14.4 °C 12.1 °C 1014.6 hPa Calm     85.8% 0.0 mm 0 W/m2
02:09 14.5 °C 12.1 °C 1014.6 hPa Calm     85.5% 0.0 mm 0 W/m2
02:14 14.5 °C 11.9 °C 1014.6 hPa Calm     84.6% 0.0 mm 0 W/m2
02:19 14.6 °C 12 °C 1014.6 hPa Calm     84.6% 0.0 mm 0 W/m2
02:24 14.8 °C 12.1 °C 1014.6 hPa Calm     84.1% 0.0 mm 0 W/m2
02:29 15 °C 12.1 °C 1014.6 hPa Calm     83% 0.0 mm 0 W/m2
02:34 15 °C 12.4 °C 1014.9 hPa Calm     84.6% 0.0 mm 0 W/m2
02:39 14.9 °C 12.4 °C 1014.9 hPa Calm     85% 0.0 mm 0 W/m2
02:44 14.9 °C 12.6 °C 1014.9 hPa Calm     86% 0.0 mm 0 W/m2
02:49 14.5 °C 12.3 °C 1014.9 hPa Calm     86.7% 0.0 mm 0 W/m2
02:54 14.5 °C 12.2 °C 1014.9 hPa Calm     85.9% 0.0 mm 0 W/m2
02:59 14.5 °C 12.4 °C 1014.6 hPa Calm     87% 0.0 mm 0 W/m2
03:04 14.5 °C 12.5 °C 1014.6 hPa Calm     88% 0.0 mm 0 W/m2
03:09 14.6 °C 12.6 °C 1014.6 hPa Calm     87.9% 0.0 mm 0 W/m2
03:14 14.6 °C 12.1 °C 1014.6 hPa Calm     85.2% 0.0 mm 0 W/m2
03:19 14.7 °C 12.5 °C 1014.6 hPa Calm     86.4% 0.0 mm 0 W/m2
03:24 14.7 °C 12.4 °C 1014.6 hPa Calm     86% 0.0 mm 0 W/m2
03:29 14.7 °C 12.4 °C 1014.6 hPa Calm     86% 0.0 mm 0 W/m2
03:34 14.8 °C 12.5 °C 1014.6 hPa Calm     86% 0.0 mm 0 W/m2
03:39 14.8 °C 12.2 °C 1014.6 hPa Calm     84.8% 0.0 mm 0 W/m2
03:44 14.7 °C 12.1 °C 1014.6 hPa Calm     84.6% 0.0 mm 0 W/m2
03:49 14.4 °C 11.9 °C 1014.2 hPa Calm     85% 0.0 mm 0 W/m2
03:54 14.4 °C 11.9 °C 1014.2 hPa Calm     85% 0.0 mm 0 W/m2
03:59 14.4 °C 11.8 °C 1014.2 hPa Calm     84.7% 0.0 mm 0 W/m2
04:04 14.3 °C 12 °C 1014.2 hPa Calm     85.9% 0.0 mm 0 W/m2
04:09 13.8 °C 11.5 °C 1014.2 hPa Calm     86.2% 0.0 mm 0 W/m2
04:14 13.8 °C 11.3 °C 1014.2 hPa Calm     84.8% 0.0 mm 0 W/m2
04:19 13.9 °C 11.5 °C 1014.2 hPa Calm     85.7% 0.0 mm 0 W/m2
04:24 13.9 °C 11.3 °C 1014.2 hPa Calm     84.3% 0.0 mm 0 W/m2
04:29 14.2 °C 11.4 °C 1013.9 hPa Calm     83.3% 0.0 mm 0 W/m2
04:34 14.1 °C 11.5 °C 1013.9 hPa Calm     84.3% 0.0 mm 0 W/m2
04:39 14.1 °C 11.6 °C 1013.9 hPa Calm     85% 0.0 mm 0 W/m2
04:44 14 °C 11.3 °C 1014.2 hPa Calm     83.5% 0.0 mm 0 W/m2
04:49 14 °C 11.2 °C 1014.2 hPa Calm     83.2% 0.0 mm 0 W/m2
04:54 14 °C 11.1 °C 1014.2 hPa Calm     82.3% 0.0 mm 0 W/m2
04:59 14 °C 11.3 °C 1013.9 hPa Calm     84% 0.0 mm 0 W/m2
05:04 14 °C 11 °C 1014.2 hPa Calm     82% 0.0 mm 0 W/m2
05:09 14.3 °C 11.4 °C 1013.9 hPa Calm     82.6% 0.0 mm 0 W/m2
05:14 14.3 °C 10.8 °C 1013.9 hPa Calm     79.7% 0.0 mm 0 W/m2
05:19 14.4 °C 10.6 °C 1013.9 hPa Calm     77.8% 0.0 mm 0 W/m2
05:24 14.5 °C 10.4 °C 1013.9 hPa Calm     76.8% 0.0 mm 0 W/m2
05:29 14.9 °C 10.7 °C 1013.9 hPa Calm     76.2% 0.0 mm 0 W/m2
05:34 15 °C 11.2 °C 1014.2 hPa Calm     77.9% 0.0 mm 0 W/m2
05:39 14.9 °C 10.9 °C 1014.2 hPa Calm     77% 0.0 mm 0 W/m2
05:44 14.9 °C 10.8 °C 1014.2 hPa Calm     76.8% 0.0 mm 0 W/m2
05:49 14.8 °C 10.7 °C 1014.2 hPa Calm     76.2% 0.0 mm 0 W/m2
05:54 14.8 °C 10.8 °C 1014.2 hPa Calm     77% 0.0 mm 0 W/m2
05:59 14.8 °C 10.9 °C 1014.2 hPa Calm     77.7% 0.0 mm 0 W/m2
06:04 14.7 °C 11 °C 1014.2 hPa Calm     78.4% 0.0 mm 0 W/m2
06:09 14.2 °C 10.8 °C 1014.2 hPa Calm     80% 0.0 mm 0 W/m2
06:14 14.1 °C 10.7 °C 1014.2 hPa Calm     80% 0.0 mm 0 W/m2
06:19 14.1 °C 10.9 °C 1014.2 hPa Calm     81% 0.0 mm 0 W/m2
06:24 14 °C 10.8 °C 1014.2 hPa Calm     81% 0.0 mm 0 W/m2
06:29 13.8 °C 10.7 °C 1014.2 hPa Calm     81.6% 0.0 mm 0 W/m2
06:34 13.7 °C 10.9 °C 1014.6 hPa Calm     83.1% 0.0 mm 0 W/m2
06:39 13.7 °C 10.7 °C 1014.6 hPa Calm     82% 0.0 mm 0 W/m2
06:44 13.7 °C 10.6 °C 1014.6 hPa Calm     81.4% 0.0 mm 0 W/m2
06:49 14 °C 10.7 °C 1014.6 hPa Calm     80.7% 0.0 mm 0 W/m2
06:54 14 °C 10.8 °C 1014.6 hPa Calm     81% 0.0 mm 0 W/m2
06:59 14 °C 10.9 °C 1014.6 hPa Calm     81.7% 0.0 mm 0 W/m2
07:04 13.9 °C 11.1 °C 1014.6 hPa Calm     82.9% 0.0 mm 0 W/m2
07:09 13.8 °C 10.8 °C 1014.6 hPa Calm     82% 0.0 mm 0 W/m2
07:14 13.8 °C 11 °C 1014.6 hPa Calm     83% 0.0 mm 0 W/m2
07:19 13.7 °C 11.2 °C 1014.6 hPa Calm     84.9% 0.0 mm 0 W/m2
07:24 13.7 °C 11 °C 1014.6 hPa Calm     84.1% 0.0 mm 0 W/m2
07:29 14 °C 11.2 °C 1014.6 hPa Calm     83.4% 0.0 mm 0 W/m2
07:34 14 °C 11.3 °C 1014.6 hPa Calm     83.9% 0.0 mm 0 W/m2
07:39 14 °C 11.5 °C 1014.6 hPa Calm     85% 0.0 mm 0 W/m2
07:44 14 °C 11.7 °C 1014.6 hPa Calm     85.8% 0.0 mm 0 W/m2
07:49 13.9 °C 11.6 °C 1014.6 hPa Calm     85.9% 0.0 mm 4 W/m2
07:54 13.9 °C 11.5 °C 1014.6 hPa Calm     85.4% 0.0 mm 9 W/m2
07:59 14 °C 11.3 °C 1014.6 hPa Calm     84.2% 0.0 mm 19 W/m2
08:04 14.1 °C 11.4 °C 1014.9 hPa Calm     84% 0.0 mm 27 W/m2
08:09 14.5 °C 11.7 °C 1014.9 hPa Calm     83.4% 0.0 mm 35 W/m2
08:14 14.8 °C 11.8 °C 1014.9 hPa Calm     82.4% 0.0 mm 42 W/m2
08:19 14.9 °C 11.7 °C 1014.9 hPa Calm     80.8% 0.0 mm 47 W/m2
08:24 15.1 °C 11.7 °C 1014.9 hPa Calm     80% 0.0 mm 39 W/m2
08:29 15.5 °C 12.3 °C 1014.9 hPa Calm     81% 0.0 mm 42 W/m2
08:34 15.9 °C 12.7 °C 1014.9 hPa Calm     81.6% 0.0 mm 51 W/m2
08:39 16 °C 12.7 °C 1014.9 hPa Calm     81.2% 0.0 mm 44 W/m2
08:44 16 °C 12.8 °C 1014.9 hPa Calm     81.1% 0.0 mm 68 W/m2
08:49 17 °C 13.1 °C 1015.2 hPa Calm     78.1% 0.0 mm 69 W/m2
08:54 17.5 °C 13.8 °C 1015.2 hPa Calm     78.6% 0.0 mm 33 W/m2
08:59 17.3 °C 13.9 °C 1015.2 hPa Calm     80.6% 0.0 mm 73 W/m2
09:04 16.9 °C 13.6 °C 1015.2 hPa Calm     80.8% 0.0 mm 37 W/m2
09:09 16.3 °C 12.9 °C 1015.2 hPa Calm     80.8% 0.0 mm 80 W/m2
09:14 15.7 °C 12.1 °C 1015.2 hPa Calm     79% 0.0 mm 84 W/m2
09:19 15.8 °C 12 °C 1015.2 hPa Calm     78% 0.0 mm 88 W/m2
09:24 15.8 °C 12.1 °C 1015.2 hPa Calm     78.3% 0.0 mm 93 W/m2
09:29 16 °C 12.4 °C 1015.2 hPa Calm     78.9% 0.0 mm 94 W/m2
09:34 16.3 °C 12.8 °C 1015.2 hPa Calm     79.7% 0.0 mm 100 W/m2
09:39 16.2 °C 12.8 °C 1015.2 hPa Calm     80.4% 0.0 mm 127 W/m2
09:44 16.2 °C 12.7 °C 1015.2 hPa Calm     79.8% 0.0 mm 145 W/m2
09:49 16.7 °C 12.9 °C 1015.6 hPa Calm     77.9% 0.0 mm 153 W/m2
09:54 17.3 °C 13.5 °C 1015.2 hPa Calm     78.1% 0.0 mm 143 W/m2
09:59 17.3 °C 13.5 °C 1015.2 hPa Calm     78.6% 0.0 mm 134 W/m2
10:04 17.2 °C 13.7 °C 1015.6 hPa Calm     80.3% 0.0 mm 136 W/m2
10:09 16.9 °C 13.7 °C 1015.2 hPa Calm     81.6% 0.0 mm 160 W/m2
10:14 16.6 °C 13 °C 1015.2 hPa Calm     79.4% 0.0 mm 153 W/m2
10:19 16.7 °C 13 °C 1015.6 hPa Calm     79.2% 0.0 mm 121 W/m2
10:24 16.8 °C 13.2 °C 1015.2 hPa Calm     79.7% 0.0 mm 123 W/m2
10:29 17.2 °C 13.6 °C 1015.2 hPa Calm     79.2% 0.0 mm 124 W/m2
10:34 17.9 °C 14.1 °C 1015.6 hPa Calm     78.3% 0.0 mm 125 W/m2
10:39 17.9 °C 14.1 °C 1015.6 hPa Calm     78.6% 0.0 mm 129 W/m2
10:44 17.8 °C 14.2 °C 1015.6 hPa Calm     79.3% 0.0 mm 144 W/m2
10:49 17.7 °C 14.2 °C 1015.2 hPa Calm     79.8% 0.0 mm 146 W/m2
10:54 17.6 °C 13.6 °C 1015.6 hPa Calm     77.4% 0.0 mm 162 W/m2
10:59 17.9 °C 13.4 °C 1015.2 hPa South 0.1 km/h 4 km/h 74.9% 0.0 mm 185 W/m2
11:04 18.3 °C 13.6 °C 1015.2 hPa East 0.1 km/h 4 km/h 74% 0.0 mm 190 W/m2
11:09 18.9 °C 14.3 °C 1015.6 hPa ESE 0.4 km/h 7.9 km/h 74.7% 0.0 mm 208 W/m2
11:14 19.5 °C 15.2 °C 1015.6 hPa SSE 1.4 km/h 12.2 km/h 76% 0.0 mm 247 W/m2
11:19 19.4 °C 15.5 °C 1015.6 hPa Calm   7.9 km/h 77.8% 0.0 mm 185 W/m2
11:24 19.2 °C 15.6 °C 1015.2 hPa South 0.8 km/h 7.9 km/h 79.6% 0.0 mm 150 W/m2
11:29 18.8 °C 15.3 °C 1015.2 hPa Calm   7.9 km/h 80.1% 0.0 mm 160 W/m2
11:34 17.6 °C 13.9 °C 1015.2 hPa Calm     78.8% 0.0 mm 167 W/m2
11:39 17.6 °C 13.6 °C 1015.2 hPa Calm     77.7% 0.0 mm 147 W/m2
11:44 17.6 °C 13.5 °C 1015.6 hPa Calm     76.8% 0.0 mm 138 W/m2
11:49 17.7 °C 13.6 °C 1015.2 hPa Calm     77.3% 0.0 mm 136 W/m2
11:54 17.9 °C 13.7 °C 1015.2 hPa Calm     76.5% 0.0 mm 132 W/m2
11:59 18 °C 13.7 °C 1015.6 hPa Calm     75.8% 0.0 mm 127 W/m2
12:04 18 °C 13.9 °C 1015.6 hPa Calm     76.8% 0.0 mm 114 W/m2
12:09 17.9 °C 14 °C 1015.6 hPa Calm     77.7% 0.0 mm 124 W/m2
12:14 17.7 °C 13.8 °C 1015.6 hPa Calm     78.1% 0.0 mm 141 W/m2
12:19 17.7 °C 13.7 °C 1015.6 hPa Calm     77.8% 0.0 mm 162 W/m2
12:24 17.8 °C 14 °C 1015.6 hPa Calm     78.6% 0.0 mm 183 W/m2
12:29 17.9 °C 14 °C 1015.2 hPa Calm     78% 0.0 mm 179 W/m2
12:34 18.6 °C 14.6 °C 1015.2 hPa Calm     77.4% 0.0 mm 163 W/m2
12:39 18.6 °C 14.5 °C 1015.2 hPa Calm     77.1% 0.0 mm 150 W/m2
12:44 18.6 °C 14.9 °C 1015.2 hPa Calm     79% 0.0 mm 148 W/m2
12:49 18.6 °C 15 °C 1015.2 hPa Calm     79.8% 0.0 mm 132 W/m2
12:54 18.3 °C 15 °C 1015.2 hPa SE 0.7 km/h 7.9 km/h 80.9% 0.0 mm 149 W/m2
12:59 18.3 °C 15 °C 1014.9 hPa SSE 1.5 km/h 7.9 km/h 81.2% 0.0 mm 183 W/m2
13:04 18.3 °C 15 °C 1015.2 hPa SSE 0.7 km/h 7.9 km/h 81.1% 0.0 mm 169 W/m2
13:09 18.4 °C 15.1 °C 1014.9 hPa Calm   4 km/h 81% 0.0 mm 140 W/m2
13:14 18.5 °C 15.4 °C 1014.9 hPa SSE 1.7 km/h 12.2 km/h 81.6% 0.0 mm 136 W/m2
13:19 18.5 °C 15.2 °C 1014.9 hPa South 1.4 km/h 12.2 km/h 81% 0.0 mm 127 W/m2
13:24 18.5 °C 15.2 °C 1014.9 hPa SSE 1.6 km/h 7.9 km/h 80.9% 0.0 mm 127 W/m2
13:29 18.4 °C 15.1 °C 1014.9 hPa SSE 3.8 km/h 12.2 km/h 80.8% 0.0 mm 150 W/m2
13:34 18.3 °C 14.8 °C 1014.6 hPa South 4.4 km/h 16.3 km/h 80.3% 0.0 mm 178 W/m2
13:38 18.3 °C 14.5 °C 1014.6 hPa SE 1.5 km/h 16.3 km/h 78.6% 0.0 mm 399 W/m2
13:43 18.4 °C 14 °C 1014.6 hPa SSE 0.8 km/h 12.2 km/h 75.5% 0.0 mm 399 W/m2
13:49 18.6 °C 13.4 °C 1014.6 hPa South 4.4 km/h 12.2 km/h 71.8% 0.0 mm 523 W/m2
13:54 19.6 °C 14.2 °C 1014.6 hPa South 4.8 km/h 20.1 km/h 70.8% 0.0 mm 526 W/m2
13:59 19.7 °C 14 °C 1014.6 hPa South 4.6 km/h 16.3 km/h 69.7% 0.0 mm 569 W/m2
14:04 19.8 °C 13.8 °C 1014.6 hPa South 6.7 km/h 20.1 km/h 68.7% 0.0 mm 489 W/m2
14:09 19.9 °C 13.9 °C 1014.2 hPa South 5.4 km/h 16.3 km/h 68.5% 0.0 mm 463 W/m2
14:14 20.3 °C 14.4 °C 1013.9 hPa SSE 8.4 km/h 20.1 km/h 69.1% 0.0 mm 449 W/m2
14:19 20.3 °C 14.5 °C 1013.9 hPa South 10.3 km/h 24.1 km/h 69.4% 0.0 mm 451 W/m2
14:24 20.3 °C 14.6 °C 1013.9 hPa SSE 6.6 km/h 20.1 km/h 69.9% 0.0 mm 456 W/m2
14:29 20.3 °C 14.4 °C 1013.9 hPa South 9.2 km/h 24.1 km/h 68.8% 0.0 mm 464 W/m2
14:34 20.5 °C 15 °C 1013.9 hPa South 8.5 km/h 16.3 km/h 70.5% 0.0 mm 494 W/m2
14:39 20.5 °C 15.2 °C 1013.9 hPa South 7.1 km/h 16.3 km/h 71.5% 0.0 mm 455 W/m2
14:44 20.4 °C 15.1 °C 1013.9 hPa SSE 8.9 km/h 16.3 km/h 71.4% 0.0 mm 428 W/m2
14:49 20.4 °C 15 °C 1013.5 hPa SE 6.4 km/h 20.1 km/h 71.2% 0.0 mm 427 W/m2
14:54 20.4 °C 15 °C 1013.5 hPa SSE 4.2 km/h 16.3 km/h 71% 0.0 mm 425 W/m2
14:59 20.4 °C 15 °C 1013.5 hPa SSE 4.7 km/h 16.3 km/h 71.2% 0.0 mm 432 W/m2
15:04 20.4 °C 14.9 °C 1013.5 hPa SSE 3.2 km/h 12.2 km/h 70.8% 0.0 mm 433 W/m2
15:09 20.4 °C 15 °C 1013.5 hPa SSE 4.1 km/h 12.2 km/h 71.1% 0.0 mm 426 W/m2
15:14 20.2 °C 14.8 °C 1013.5 hPa SSE 5.2 km/h 16.3 km/h 71% 0.0 mm 419 W/m2
15:19 20.2 °C 14.8 °C 1013.5 hPa South 5.4 km/h 16.3 km/h 71% 0.0 mm 420 W/m2
15:24 20.2 °C 15.2 °C 1013.5 hPa SE 5.5 km/h 16.3 km/h 73.2% 0.0 mm 345 W/m2
15:29 20 °C 15.2 °C 1013.2 hPa SSE 5.7 km/h 16.3 km/h 73.7% 0.0 mm 219 W/m2
15:34 19.3 °C 14.6 °C 1013.2 hPa South 2.6 km/h 12.2 km/h 74% 0.0 mm 447 W/m2
15:39 19.3 °C 14.2 °C 1013.2 hPa SSE 2.7 km/h 12.2 km/h 72.6% 0.0 mm 442 W/m2
15:44 19.5 °C 14.1 °C 1013.2 hPa SSE 3.8 km/h 12.2 km/h 70.9% 0.0 mm 451 W/m2
15:49 19.8 °C 14.4 °C 1013.2 hPa South 2.9 km/h 12.2 km/h 71.1% 0.0 mm 446 W/m2
15:54 20.2 °C 15 °C 1012.9 hPa South 1.8 km/h 12.2 km/h 71.9% 0.0 mm 177 W/m2
15:59 20.3 °C 15.1 °C 1012.9 hPa SSE 2.6 km/h 16.3 km/h 71.8% 0.0 mm 391 W/m2
16:04 20.3 °C 14.6 °C 1012.9 hPa SSE 2.1 km/h 7.9 km/h 69.8% 0.0 mm 390 W/m2
16:09 20.3 °C 14.6 °C 1012.9 hPa South 3.6 km/h 12.2 km/h 70% 0.0 mm 377 W/m2
16:14 20.3 °C 14.7 °C 1012.5 hPa SSW 2.6 km/h 7.9 km/h 70.3% 0.0 mm 212 W/m2
16:19 20.3 °C 14.7 °C 1012.5 hPa South 2.2 km/h 16.3 km/h 70.1% 0.0 mm 354 W/m2
16:24 20.4 °C 14.6 °C 1012.9 hPa SSW 1.1 km/h 16.3 km/h 69.3% 0.0 mm 352 W/m2
16:29 20.5 °C 14.9 °C 1012.5 hPa SSE 1.9 km/h 7.9 km/h 70.4% 0.0 mm 294 W/m2
16:34 19.8 °C 14.8 °C 1012.5 hPa SSW 0.9 km/h 12.2 km/h 72.8% 0.0 mm 161 W/m2
16:39 19.6 °C 14.4 °C 1012.5 hPa SSW 0.4 km/h 7.9 km/h 72.4% 0.0 mm 316 W/m2
16:44 19.7 °C 14.2 °C 1012.5 hPa SSE 0.6 km/h 7.9 km/h 70.6% 0.0 mm 305 W/m2
16:49 19.8 °C 14.5 °C 1012.5 hPa SE 1.8 km/h 12.2 km/h 71.7% 0.0 mm 196 W/m2
16:54 19.5 °C 14.9 °C 1012.5 hPa SE 3.5 km/h 12.2 km/h 74.4% 0.0 mm 131 W/m2
16:59 19.4 °C 15 °C 1012.5 hPa SE 0.7 km/h 7.9 km/h 75.3% 0.0 mm 89 W/m2
17:04 19.4 °C 15 °C 1012.5 hPa SSE 1.3 km/h 7.9 km/h 75.6% 0.0 mm 58 W/m2
17:09 19.3 °C 15.1 °C 1012.5 hPa Calm   4 km/h 76.6% 0.0 mm 73 W/m2
17:14 19 °C 14.9 °C 1012.2 hPa South 0.7 km/h 4 km/h 77% 0.0 mm 105 W/m2
17:19 18.8 °C 14.7 °C 1012.2 hPa Calm   4 km/h 77% 0.0 mm 94 W/m2
17:24 18.8 °C 14.6 °C 1012.2 hPa South 3.3 km/h 7.9 km/h 76.4% 0.0 mm 91 W/m2
17:28 18.8 °C 14.6 °C 1012.2 hPa South 1.9 km/h 7.9 km/h 76.4% 0.0 mm 72 W/m2
17:34 18.7 °C 14.7 °C 1012.2 hPa South 2.2 km/h 12.2 km/h 77.6% 0.0 mm 58 W/m2
17:39 18.6 °C 14.9 °C 1012.2 hPa South 1.9 km/h 12.2 km/h 79% 0.0 mm 51 W/m2
17:44 18.6 °C 14.9 °C 1012.2 hPa South 0.5 km/h 7.9 km/h 79.2% 0.0 mm 47 W/m2
17:49 18.5 °C 15.1 °C 1012.2 hPa Calm   4 km/h 80.5% 0.0 mm 36 W/m2
17:54 18.1 °C 14.8 °C 1012.2 hPa Calm     81% 0.0 mm 36 W/m2
17:59 17.8 °C 14.7 °C 1011.9 hPa Calm     81.8% 0.0 mm 38 W/m2
18:04 17.8 °C 14.8 °C 1011.9 hPa Calm     82.3% 0.0 mm 39 W/m2
18:09 17.7 °C 14.9 °C 1011.9 hPa Calm     83.2% 0.0 mm 38 W/m2
18:14 17.3 °C 14.8 °C 1011.9 hPa Calm     85.4% 0.0 mm 32 W/m2
18:19 17 °C 14.7 °C 1011.5 hPa South 0.4 km/h 4 km/h 86.7% 0.0 mm 27 W/m2
18:24 17 °C 14.6 °C 1011.5 hPa South 0.5 km/h 7.9 km/h 86% 0.0 mm 23 W/m2
18:29 16.9 °C 14.4 °C 1011.9 hPa Calm     85% 0.0 mm 19 W/m2
18:34 16.8 °C 14.3 °C 1011.9 hPa Calm     85.7% 0.0 mm 13 W/m2
18:39 16.6 °C 14.4 °C 1011.9 hPa Calm     86.9% 0.0 mm 6 W/m2
18:44 16.6 °C 14.2 °C 1011.9 hPa SSW 0.5 km/h 7.9 km/h 85.8% 0.0 mm 3 W/m2
18:49 16.6 °C 14.2 °C 1011.9 hPa Calm     85.4% 0.0 mm 0 W/m2
18:54 16.6 °C 14.1 °C 1011.9 hPa SSE 0.7 km/h 7.9 km/h 84.8% 0.0 mm 0 W/m2
18:59 16.6 °C 14 °C 1011.9 hPa South 0.2 km/h 4 km/h 84.6% 0.0 mm 0 W/m2
19:04 16.5 °C 14 °C 1012.2 hPa South 0.8 km/h 7.9 km/h 84.9% 0.0 mm 0 W/m2
19:09 16.5 °C 14 °C 1012.2 hPa Calm   7.9 km/h 85% 0.0 mm 0 W/m2
19:14 16.3 °C 14 °C 1012.2 hPa Calm     86.4% 0.0 mm 0 W/m2
19:19 16 °C 13.5 °C 1012.2 hPa Calm     85% 0.0 mm 0 W/m2
19:24 16 °C 13.2 °C 1012.2 hPa Calm     83.8% 0.0 mm 0 W/m2
19:29 16.1 °C 13.1 °C 1012.2 hPa Calm     82.6% 0.0 mm 0 W/m2
19:34 16.2 °C 13 °C 1012.5 hPa Calm     81.8% 0.0 mm 0 W/m2
19:39 16.2 °C 13.3 °C 1012.5 hPa Calm     82.9% 0.0 mm 0 W/m2
19:44 16.2 °C 13.1 °C 1012.5 hPa Calm     82.1% 0.0 mm 0 W/m2
19:49 16.1 °C 12.8 °C 1012.5 hPa Calm     81.1% 0.0 mm 0 W/m2
19:54 16.1 °C 12.8 °C 1012.5 hPa Calm     80.9% 0.0 mm 0 W/m2
19:59 16.2 °C 13 °C 1012.5 hPa SSW 0.2 km/h 4 km/h 81.4% 0.0 mm 0 W/m2
20:04 16.2 °C 13.1 °C 1012.5 hPa South 0.7 km/h 7.9 km/h 82.2% 0.0 mm 0 W/m2
20:09 16.2 °C 13.3 °C 1012.5 hPa SSW 0.3 km/h 7.9 km/h 83% 0.0 mm 0 W/m2
20:14 16.2 °C 13.5 °C 1012.5 hPa Calm     84% 0.0 mm 0 W/m2
20:19 16.1 °C 13.4 °C 1012.5 hPa Calm     83.9% 0.0 mm 0 W/m2
20:24 16.1 °C 13.5 °C 1012.5 hPa Calm     84.6% 0.0 mm 0 W/m2
20:29 16 °C 13.5 °C 1012.5 hPa Calm     85% 0.0 mm 0 W/m2
20:34 16 °C 13.3 °C 1012.5 hPa South 2.3 km/h 7.9 km/h 84% 0.0 mm 0 W/m2
20:39 16.2 °C 13.3 °C 1012.5 hPa South 5.5 km/h 12.2 km/h 82.9% 0.0 mm 0 W/m2
20:44 16.2 °C 13.6 °C 1012.5 hPa South 3 km/h 12.2 km/h 84.4% 0.0 mm 0 W/m2
20:49 16.2 °C 13.7 °C 1012.9 hPa South 1.8 km/h 16.3 km/h 85% 0.0 mm 0 W/m2
20:54 16.2 °C 13.7 °C 1012.9 hPa South 8.5 km/h 20.1 km/h 85% 0.0 mm 0 W/m2
20:59 16.3 °C 14 °C 1012.9 hPa South 8.4 km/h 20.1 km/h 86% 0.0 mm 0 W/m2
21:04 16.3 °C 14.1 °C 1012.9 hPa South 6.5 km/h 12.2 km/h 86.9% 0.0 mm 0 W/m2
21:09 16.2 °C 14.2 °C 1012.9 hPa South 5.4 km/h 12.2 km/h 88% 0.0 mm 0 W/m2
21:14 16.2 °C 14.3 °C 1012.9 hPa South 4.6 km/h 12.2 km/h 88.3% 0.0 mm 0 W/m2
21:19 16.2 °C 14.3 °C 1012.5 hPa South 6.2 km/h 16.3 km/h 89% 0.0 mm 0 W/m2
21:24 16.2 °C 14.5 °C 1012.9 hPa South 6.5 km/h 16.3 km/h 89.6% 0.0 mm 0 W/m2
21:29 16.2 °C 14.6 °C 1012.9 hPa SSW 8.9 km/h 16.3 km/h 90.1% 0.0 mm 0 W/m2
21:34 16.3 °C 14.9 °C 1012.5 hPa South 6.6 km/h 16.3 km/h 91.9% 0.0 mm 0 W/m2
21:39 16.3 °C 15.4 °C 1012.9 hPa South 3.8 km/h 16.3 km/h 93.9% 0.0 mm 0 W/m2
21:44 16.3 °C 15.8 °C 1012.9 hPa South 6.7 km/h 16.3 km/h 96.9% 0.0 mm 0 W/m2
21:49 16.4 °C 15.9 °C 1013.2 hPa South 7.3 km/h 16.3 km/h 97.1% 0.0 mm 0 W/m2
21:54 16.4 °C 16.1 °C 1012.9 hPa South 7.4 km/h 24.1 km/h 98.2% 0.0 mm 0 W/m2
21:59 16.5 °C 16.3 °C 1012.9 hPa South 9.7 km/h 20.1 km/h 99% 0.0 mm 0 W/m2
22:04 16.5 °C 16.3 °C 1012.9 hPa South 9.4 km/h 20.1 km/h 99% 0.0 mm 0 W/m2
22:09 16.5 °C 16.3 °C 1012.9 hPa SSE 7.1 km/h 20.1 km/h 99% 0.0 mm 0 W/m2
22:14 16.5 °C 16.3 °C 1012.9 hPa South 5.5 km/h 12.2 km/h 99% 0.0 mm 0 W/m2
22:19 16.5 °C 16.3 °C 1012.9 hPa SSW 3.6 km/h 12.2 km/h 99% 0.0 mm 0 W/m2
22:24 16.5 °C 16.3 °C 1012.9 hPa South 5.3 km/h 16.3 km/h 99% 0.0 mm 0 W/m2
22:29 16.5 °C 16.3 °C 1012.9 hPa South 2.5 km/h 16.3 km/h 99% 0.0 mm 0 W/m2
22:34 16.5 °C 16.3 °C 1012.9 hPa South 1.1 km/h 7.9 km/h 99% 0.0 mm 0 W/m2
22:39 16.6 °C 16.4 °C 1013.2 hPa South 1.4 km/h 7.9 km/h 99% 0.0 mm 0 W/m2
22:44 16.5 °C 16.3 °C 1013.2 hPa SW 0.3 km/h 7.9 km/h 99% 0.0 mm 0 W/m2
22:49 16.5 °C 16.3 °C 1013.2 hPa South 1.4 km/h 12.2 km/h 99% 0.0 mm 0 W/m2
22:54 16.5 °C 16.3 °C 1013.2 hPa SSE 0.4 km/h 12.2 km/h 99% 0.0 mm 0 W/m2
22:59 16.7 °C 16.5 °C 1013.2 hPa South 2.2 km/h 7.9 km/h 99% 0.0 mm 0 W/m2
23:04 16.7 °C 16.5 °C 1012.9 hPa South 2.3 km/h 7.9 km/h 99% 0.0 mm 0 W/m2
23:09 16.7 °C 16.5 °C 1012.5 hPa South 2.4 km/h 12.2 km/h 99% 0.0 mm 0 W/m2
23:14 16.8 °C 16.6 °C 1012.9 hPa South 5.7 km/h 12.2 km/h 99% 0.0 mm 0 W/m2
23:19 17 °C 16.8 °C 1012.9 hPa South 2.2 km/h 7.9 km/h 99% 0.0 mm 0 W/m2
23:24 17 °C 16.8 °C 1012.9 hPa South 3.1 km/h 7.9 km/h 99% 0.0 mm 0 W/m2
23:29 16.9 °C 16.7 °C 1012.9 hPa SSW 1.3 km/h 7.9 km/h 99% 0.0 mm 0 W/m2
23:34 16.9 °C 16.7 °C 1012.9 hPa South 2.3 km/h 7.9 km/h 99% 0.0 mm 0 W/m2
23:39 16.8 °C 16.6 °C 1012.9 hPa South 3.4 km/h 7.9 km/h 99% 0.0 mm 0 W/m2
23:44 16.7 °C 16.5 °C 1012.9 hPa South 1.8 km/h 7.9 km/h 99% 0.0 mm 0 W/m2
23:49 16.7 °C 16.5 °C 1012.5 hPa SSW 0.8 km/h 7.9 km/h 99% 0.0 mm 0 W/m2
23:54 16.7 °C 16.5 °C 1012.5 hPa South 1.1 km/h 7.9 km/h 99% 0.0 mm 0 W/m2
23:59 16.7 °C 16.5 °C 1012.5 hPa South 0.6 km/h 7.9 km/h 99% 0.0 mm 0 W/m2
Juneau County Weather
Compliments of Weather Underground - 2 mb